Hlavní strana
METAR-TAF:

METAR-TAF

Letiště :

Beaufort, Jižní Karolína, Spojené státy americké

zeměpisná šířka: 32-29-37N, zeměpisná délka: 080-42-11W, výška: 11 m

Aktuální stav počasí

Zpráva byla vytvořena před 35 minutami, v 22:56 UTC
Západní vítr 15 kt s nárazy do 25 kt
Teplota 11°C
Vlhkost vzduchu 58%
Tlak 1009 hPa
Viditelnost: 16.1 km
Oblačno až skoro zataženo ve výšce 3600 ft

METAR: KNBC 302256Z 27015G25KT 10SM BKN036 11/03 A2981 RMK AO2 PK WND 29028/2227 SLP095 T01110033 $

Čas: 18:31 (23:31 UTC)

Předpověď počasí

Předpověď platná od 30 v 21 UTC do 01 v 21 UTC
Západní vítr 15 kt s nárazy do 24 kt
Viditelnost 10 km a více
Zataženo ve výšce 3000 ft
Dočasný
od 30 v 21 UTC do 01 v 02 UTC
Západní vítr 18 kt s nárazy do 25 kt

TAF: KNBC 3021/0121 27015G24KT 9999 OVC030 QNH2973INS TEMPO 3021/0102 27018G25KT T13/3021Z T02/0110Z

Stav a předpovědi počasí z více než 4 000 letišť (zprávy METAR a TAF).

Červené a žluté tečky na mapě představují dostupné meteorologické stanice.

Když kurzor umístíte na tečku, zobrazí se název stanice.

Pak kliknutím zobrazíte stav a předpověď počasí.

Chcete-li změnit mapu, kliknutím na zelené tlačítko se znaménkem +mapu přiblížíte, kliknutím na zelené tlačítko se znaménkem – mapu oddálíte a kliknutím na zelené šipky přejdete na sousední mapy.


METAR-TAF: